createdAt,value
2018-10-11T00:00:01.250Z,101044.92
2018-10-11T00:02:30.291Z,101043.76
2018-10-11T00:04:59.346Z,101039.73
2018-10-11T00:07:28.400Z,101037.52
2018-10-11T00:09:57.475Z,101037.59
2018-10-11T00:12:26.522Z,101037.52
2018-10-11T00:14:55.625Z,101041.94
2018-10-11T00:17:24.671Z,101030.73
2018-10-11T00:19:54.057Z,101040.14
2018-10-11T00:22:23.480Z,101041.07
2018-10-11T00:24:52.544Z,101039.73
2018-10-11T00:27:21.704Z,101037.04
2018-10-11T00:29:50.764Z,101043.28
2018-10-11T00:32:19.907Z,101033.49
2018-10-11T00:34:48.974Z,101038.01
2018-10-11T00:37:18.049Z,101036.18
2018-10-11T00:39:47.342Z,101029.45
2018-10-11T00:42:16.549Z,101029.94
2018-10-11T00:44:45.643Z,101037.70
2018-10-11T00:47:14.739Z,101038.94
2018-10-11T00:49:43.835Z,101035.46
2018-10-11T00:52:12.925Z,101032.22
2018-10-11T00:54:42.052Z,101034.05
2018-10-11T00:57:11.150Z,101029.64
2018-10-11T00:59:40.319Z,101025.61
2018-10-11T01:02:09.478Z,101035.88
2018-10-11T01:04:38.604Z,101035.46
2018-10-11T01:07:07.656Z,101030.09
2018-10-11T01:09:36.727Z,101031.05
2018-10-11T01:12:06.005Z,101036.81
2018-10-11T01:14:35.098Z,101032.02
2018-10-11T01:17:04.204Z,101028.92
2018-10-11T01:19:33.271Z,101025.93
2018-10-11T01:22:02.396Z,101024.28
2018-10-11T01:24:31.563Z,101025.93
2018-10-11T01:27:00.676Z,101027.75
2018-10-11T01:29:29.837Z,101026.11
2018-10-11T01:31:59.086Z,101026.11
2018-10-11T01:34:28.399Z,101030.21
2018-10-11T01:36:57.455Z,101031.97
2018-10-11T01:39:26.491Z,101022.08
2018-10-11T01:41:55.587Z,101022.63
2018-10-11T01:44:24.675Z,101025.31
2018-10-11T01:46:54.107Z,101024.08
2018-10-11T01:49:23.207Z,101012.92
2018-10-11T01:51:52.264Z,101003.44
2018-10-11T01:54:21.363Z,100997.76
2018-10-11T01:56:50.465Z,100999.59
2018-10-11T01:59:19.793Z,100996.90
2018-10-11T02:01:48.867Z,100992.38
2018-10-11T02:04:17.983Z,100984.32
2018-10-11T02:06:47.017Z,100989.28
2018-10-11T02:09:16.137Z,100987.94
2018-10-11T02:11:45.206Z,100988.91
2018-10-11T02:14:14.331Z,100994.36
2018-10-11T02:16:43.597Z,100991.22
2018-10-11T02:19:12.719Z,100991.22
2018-10-11T02:21:41.759Z,100988.05
2018-10-11T02:24:11.419Z,100983.16
2018-10-11T02:26:45.859Z,100984.50
2018-10-11T02:29:20.495Z,100982.27
2018-10-11T02:31:49.606Z,100986.15
2018-10-11T02:34:18.951Z,100983.91
2018-10-11T02:36:48.066Z,100986.22
2018-10-11T02:39:17.175Z,100988.84
2018-10-11T02:41:46.271Z,100983.53
2018-10-11T02:44:15.487Z,100978.84
2018-10-11T02:46:44.567Z,100975.70
2018-10-11T02:49:13.644Z,100980.67
2018-10-11T02:51:42.705Z,100983.77
2018-10-11T02:54:11.786Z,100980.67
2018-10-11T02:56:41.476Z,100984.80
2018-10-11T02:59:21.633Z,100983.91
2018-10-11T03:01:51.234Z,100970.47
2018-10-11T03:04:20.329Z,100967.71
2018-10-11T03:06:49.638Z,100974.73
2018-10-11T03:09:18.712Z,100966.85
2018-10-11T03:11:48.056Z,100968.20
2018-10-11T03:14:17.162Z,100970.47
2018-10-11T03:16:46.195Z,100967.03
2018-10-11T03:19:15.311Z,100964.11
2018-10-11T03:21:44.406Z,100964.19
2018-10-11T03:24:13.553Z,100962.05
2018-10-11T03:26:42.804Z,100962.64
2018-10-11T03:29:11.908Z,100962.16
2018-10-11T03:31:40.986Z,100963.51
2018-10-11T03:34:10.042Z,100962.23
2018-10-11T03:36:39.110Z,100968.77
2018-10-11T03:39:08.335Z,100960.81
2018-10-11T03:41:37.384Z,100953.55
2018-10-11T03:44:06.672Z,100954.48
2018-10-11T03:46:41.717Z,100953.99
2018-10-11T03:49:16.347Z,100950.07
2018-10-11T03:51:45.548Z,100949.59
2018-10-11T03:54:14.662Z,100946.97
2018-10-11T03:56:43.932Z,100944.59
2018-10-11T03:59:13.320Z,100947.76
2018-10-11T04:01:42.434Z,100942.39
2018-10-11T04:04:11.522Z,100941.05
2018-10-11T04:06:40.574Z,100947.86
2018-10-11T04:09:09.712Z,100945.18
2018-10-11T04:11:38.842Z,100943.35
2018-10-11T04:14:07.803Z,100934.50
2018-10-11T04:16:36.899Z,100938.61
2018-10-11T04:19:06.514Z,100931.52
2018-10-11T04:21:35.549Z,100934.12
2018-10-11T04:24:04.604Z,100934.02
2018-10-11T04:26:33.691Z,100930.85
2018-10-11T04:29:02.903Z,100934.02
2018-10-11T04:31:32.004Z,100931.81
2018-10-11T04:34:01.068Z,100927.41
2018-10-11T04:36:30.127Z,100931.52
2018-10-11T04:38:59.239Z,100929.00
2018-10-11T04:41:28.383Z,100935.72
2018-10-11T04:43:57.535Z,100931.59
2018-10-11T04:46:26.658Z,100943.13
2018-10-11T04:48:55.760Z,100932.55
2018-10-11T04:51:24.891Z,100940.99
2018-10-11T04:53:54.951Z,100934.68
2018-10-11T04:56:25.154Z,100946.06
2018-10-11T04:58:54.464Z,100954.84
2018-10-11T05:01:23.511Z,100960.52
2018-10-11T05:03:52.795Z,100949.77
2018-10-11T05:06:21.890Z,100951.00
2018-10-11T05:08:51.083Z,100953.69
2018-10-11T05:11:20.504Z,100952.27
2018-10-11T05:13:50.782Z,100956.30
2018-10-11T05:16:19.950Z,100954.89
2018-10-11T05:18:53.250Z,100957.95
2018-10-11T05:21:22.653Z,100955.34
2018-10-11T05:23:51.883Z,100954.59
2018-10-11T05:26:21.139Z,100958.51
2018-10-11T05:28:50.202Z,100956.68
2018-10-11T05:31:19.252Z,100964.19
2018-10-11T05:33:48.431Z,100953.92
2018-10-11T05:36:17.458Z,100962.66
2018-10-11T05:38:46.551Z,100967.11
2018-10-11T05:41:15.703Z,100976.44
2018-10-11T05:43:44.787Z,100967.78
2018-10-11T05:46:26.683Z,100971.37
2018-10-11T05:48:56.855Z,100977.98
2018-10-11T05:51:26.275Z,100985.19
2018-10-11T05:53:56.887Z,100977.91
2018-10-11T05:56:27.936Z,100980.11
2018-10-11T05:58:57.789Z,100980.97
2018-10-11T06:01:27.003Z,100972.42
2018-10-11T06:03:56.955Z,100980.97
2018-10-11T06:06:26.136Z,100983.17
2018-10-11T06:09:01.582Z,100980.48
2018-10-11T06:11:30.647Z,100979.25
2018-10-11T06:13:59.691Z,100990.00
2018-10-11T06:16:28.835Z,100990.94
2018-10-11T06:18:57.941Z,100990.00
2018-10-11T06:21:27.382Z,100997.95
2018-10-11T06:23:56.631Z,101006.44
2018-10-11T06:26:25.737Z,101001.92
2018-10-11T06:28:54.811Z,101008.56
2018-10-11T06:31:23.915Z,101004.98
2018-10-11T06:33:53.125Z,100996.92
2018-10-11T06:36:22.676Z,100985.31
2018-10-11T06:38:52.296Z,100996.84
2018-10-11T06:41:21.421Z,101003.08
2018-10-11T06:43:50.463Z,101006.25
2018-10-11T06:46:19.616Z,101001.25
2018-10-11T06:48:48.660Z,101003.94
2018-10-11T06:51:17.813Z,101000.32
2018-10-11T06:53:47.119Z,100999.45
2018-10-11T06:56:16.191Z,101001.56
2018-10-11T06:58:45.330Z,101005.59
2018-10-11T07:01:14.435Z,101014.37
2018-10-11T07:03:43.511Z,101018.22
2018-10-11T07:06:12.670Z,101016.80
2018-10-11T07:08:41.730Z,101015.28
2018-10-11T07:11:10.835Z,101014.23
2018-10-11T07:13:40.129Z,101018.09
2018-10-11T07:16:09.398Z,101012.64
2018-10-11T07:18:38.774Z,101014.66
2018-10-11T07:21:07.967Z,101021.69
2018-10-11T07:23:37.357Z,101019.30
2018-10-11T07:26:06.658Z,101021.43
2018-10-11T07:28:35.977Z,101024.05
2018-10-11T07:31:05.191Z,101021.17
2018-10-11T07:33:34.420Z,101021.09
2018-10-11T07:36:03.831Z,101024.16
2018-10-11T07:38:33.290Z,101025.88
2018-10-11T07:41:02.602Z,101032.61
2018-10-11T07:43:32.385Z,101024.54
2018-10-11T07:46:01.650Z,101030.33
2018-10-11T07:48:31.004Z,101038.70
2018-10-11T07:51:00.418Z,101042.55
2018-10-11T07:53:29.816Z,101035.67
2018-10-11T07:55:59.024Z,101048.86
2018-10-11T07:58:28.271Z,101048.69
2018-10-11T08:00:57.559Z,101056.19
2018-10-11T08:03:27.015Z,101052.56
2018-10-11T08:05:56.752Z,101058.51
2018-10-11T08:08:26.306Z,101052.72
2018-10-11T08:10:56.064Z,101070.98
2018-10-11T08:13:25.329Z,101086.58
2018-10-11T08:15:55.000Z,101095.81
2018-10-11T08:18:24.502Z,101078.73
2018-10-11T08:20:53.716Z,101085.45
2018-10-11T08:23:22.945Z,101082.66
2018-10-11T08:25:52.471Z,101074.99
2018-10-11T08:28:21.735Z,101064.71
2018-10-11T08:30:51.115Z,101059.33
2018-10-11T08:33:20.603Z,101055.30
2018-10-11T08:35:49.877Z,101050.36
2018-10-11T08:38:19.467Z,101060.19
2018-10-11T08:40:48.835Z,101069.61
2018-10-11T08:43:18.117Z,101073.53
2018-10-11T08:45:47.388Z,101074.80
2018-10-11T08:48:16.973Z,101072.12
2018-10-11T08:50:46.509Z,101071.63
2018-10-11T08:53:16.055Z,101055.89
2018-10-11T08:55:45.749Z,101050.02
2018-10-11T08:58:15.186Z,101058.47
2018-10-11T09:00:44.497Z,101051.19
2018-10-11T09:03:13.759Z,101056.08
2018-10-11T09:05:43.047Z,101057.53
2018-10-11T09:08:12.221Z,101057.05
2018-10-11T09:10:41.658Z,101059.74
2018-10-11T09:13:10.719Z,101063.78
2018-10-11T09:15:39.850Z,101069.95
2018-10-11T09:18:09.011Z,101072.34
2018-10-11T09:20:38.066Z,101068.72
2018-10-11T09:23:07.384Z,101067.26
2018-10-11T09:25:36.650Z,101062.20
2018-10-11T09:28:05.744Z,101049.39
2018-10-11T09:30:34.810Z,101053.05
2018-10-11T09:33:03.950Z,101041.13
2018-10-11T09:35:33.108Z,101033.83
2018-10-11T09:38:02.168Z,101035.17
2018-10-11T09:40:31.307Z,101037.01
2018-10-11T09:43:00.397Z,101046.80
2018-10-11T09:45:29.451Z,101035.74
2018-10-11T09:47:58.547Z,101038.84
2018-10-11T09:50:27.703Z,101024.81
2018-10-11T09:52:56.953Z,101025.78
2018-10-11T09:55:26.119Z,101021.55
2018-10-11T09:57:55.189Z,101016.58
2018-10-11T10:00:29.824Z,101028.58
2018-10-11T10:02:59.020Z,101033.31
2018-10-11T10:05:28.399Z,101019.38
2018-10-11T10:07:57.495Z,101005.20
2018-10-11T10:10:26.724Z,100993.58
2018-10-11T10:12:55.811Z,100987.82
2018-10-11T10:15:24.916Z,100991.00
2018-10-11T10:17:54.264Z,100991.86
2018-10-11T10:20:23.342Z,100991.94
2018-10-11T10:22:52.476Z,100989.66
2018-10-11T10:25:21.547Z,100988.48
2018-10-11T10:27:50.674Z,100991.09
2018-10-11T10:30:25.039Z,101002.53
2018-10-11T10:32:54.318Z,100999.39
2018-10-11T10:35:23.514Z,100989.36
2018-10-11T10:37:52.575Z,101004.95
2018-10-11T10:40:21.686Z,101005.36
2018-10-11T10:42:50.755Z,101011.98
2018-10-11T10:45:19.894Z,100999.68
2018-10-11T10:47:49.200Z,101005.06
2018-10-11T10:50:18.247Z,101000.25
2018-10-11T10:52:47.389Z,100994.75
2018-10-11T10:55:16.431Z,100990.55
2018-10-11T10:57:45.484Z,100987.25
2018-10-11T11:00:14.542Z,100989.20
2018-10-11T11:02:43.666Z,100993.53
2018-10-11T11:05:12.850Z,100988.23
2018-10-11T11:07:41.947Z,100989.95
2018-10-11T11:10:11.031Z,100989.87
2018-10-11T11:12:45.565Z,100989.30
2018-10-11T11:15:20.057Z,100994.39
2018-10-11T11:17:54.724Z,100993.70
2018-10-11T11:20:23.831Z,100991.48
2018-10-11T11:22:52.978Z,100993.33
2018-10-11T11:25:22.213Z,100991.89
2018-10-11T11:27:51.472Z,100982.06
2018-10-11T11:30:20.533Z,100981.58
2018-10-11T11:32:49.639Z,100973.13
2018-10-11T11:35:18.745Z,100978.89
2018-10-11T11:37:47.820Z,100973.50
2018-10-11T11:40:16.974Z,100968.11
2018-10-11T11:42:46.028Z,100966.77
2018-10-11T11:45:15.188Z,100967.66
2018-10-11T11:47:44.335Z,100968.52
2018-10-11T11:50:13.505Z,100966.77
2018-10-11T11:52:42.660Z,100961.38
2018-10-11T11:55:11.875Z,100956.00
2018-10-11T11:57:41.088Z,100955.42
2018-10-11T12:00:10.531Z,100955.34
2018-10-11T12:02:39.970Z,100953.43
2018-10-11T12:05:09.326Z,100947.64
2018-10-11T12:07:38.695Z,100942.37
2018-10-11T12:10:07.875Z,100946.78
2018-10-11T12:12:54.052Z,100946.38
2018-10-11T12:15:24.815Z,100937.69
2018-10-11T12:17:56.154Z,100937.11
2018-10-11T12:20:26.445Z,100932.02
2018-10-11T12:22:56.713Z,100938.17
2018-10-11T12:25:26.129Z,100941.03
2018-10-11T12:27:55.157Z,100947.41
2018-10-11T12:30:24.300Z,100941.33
2018-10-11T12:32:53.538Z,100935.20
2018-10-11T12:35:23.608Z,100938.55
2018-10-11T12:37:52.945Z,100941.64
2018-10-11T12:40:22.611Z,100946.91
2018-10-11T12:42:51.238Z,100944.51
2018-10-11T12:45:20.511Z,100946.05
2018-10-11T12:47:49.756Z,100941.81
2018-10-11T12:50:18.936Z,100940.88
2018-10-11T12:52:48.100Z,100939.69
2018-10-11T12:55:17.719Z,100938.06
2018-10-11T12:57:46.920Z,100937.20
2018-10-11T13:00:16.796Z,100939.20
2018-10-11T13:02:45.948Z,100936.80
2018-10-11T13:05:15.246Z,100941.81
2018-10-11T13:07:44.378Z,100941.81
2018-10-11T13:10:13.619Z,100941.91
2018-10-11T13:12:42.683Z,100937.41
2018-10-11T13:15:11.808Z,100935.28
2018-10-11T13:17:43.385Z,100933.25
2018-10-11T13:20:10.312Z,100932.30
2018-10-11T13:22:39.473Z,100930.84
2018-10-11T13:25:08.569Z,100922.39
2018-10-11T13:27:37.707Z,100927.08
2018-10-11T13:30:07.439Z,100924.51
2018-10-11T13:32:36.486Z,100921.70
2018-10-11T13:35:05.908Z,100927.20
2018-10-11T13:37:35.174Z,100924.96
2018-10-11T13:40:04.610Z,100918.06
2018-10-11T13:42:34.086Z,100923.62
2018-10-11T13:45:03.245Z,100926.43
2018-10-11T13:47:35.292Z,100926.43
2018-10-11T13:50:01.675Z,100925.45
2018-10-11T13:52:30.915Z,100915.73
2018-10-11T13:55:00.023Z,100923.62
2018-10-11T13:57:31.125Z,100919.13
2018-10-11T13:59:58.524Z,100922.76
2018-10-11T14:02:27.579Z,100923.33
2018-10-11T14:04:56.643Z,100924.02
2018-10-11T14:07:25.834Z,100911.33
2018-10-11T14:09:54.888Z,100911.33
2018-10-11T14:12:24.021Z,100911.81
2018-10-11T14:14:53.101Z,100910.75
2018-10-11T14:17:22.275Z,100914.59
2018-10-11T14:19:51.434Z,100902.83
2018-10-11T14:22:20.579Z,100912.75
2018-10-11T14:24:49.693Z,100912.09
2018-10-11T14:27:18.847Z,100910.47
2018-10-11T14:29:48.130Z,100912.75
2018-10-11T14:32:17.236Z,100910.14
2018-10-11T14:34:46.389Z,100906.52
2018-10-11T14:37:15.759Z,100909.12
2018-10-11T14:39:44.988Z,100914.87
2018-10-11T14:42:14.284Z,100912.19
2018-10-11T14:44:43.480Z,100912.19
2018-10-11T14:47:12.774Z,100915.45
2018-10-11T14:49:41.889Z,100913.16
2018-10-11T14:52:10.940Z,100914.87
2018-10-11T14:54:40.270Z,100914.96
2018-10-11T14:57:14.848Z,100909.12
2018-10-11T14:59:49.645Z,100912.09
2018-10-11T15:02:18.960Z,100910.75
2018-10-11T15:04:48.118Z,100910.43
2018-10-11T15:07:17.270Z,100914.96
2018-10-11T15:09:46.607Z,100909.20
2018-10-11T15:12:15.893Z,100909.28
2018-10-11T15:14:45.032Z,100909.77
2018-10-11T15:17:14.233Z,100908.91
2018-10-11T15:19:43.425Z,100907.94
2018-10-11T15:22:12.608Z,100905.73
2018-10-11T15:24:41.760Z,100903.32
2018-10-11T15:27:10.980Z,100909.20
2018-10-11T15:29:40.068Z,100901.48
2018-10-11T15:32:09.387Z,100917.08
2018-10-11T15:34:38.518Z,100917.94
2018-10-11T15:37:07.717Z,100921.61
2018-10-11T15:39:36.812Z,100924.67
2018-10-11T15:42:06.393Z,100923.05
2018-10-11T15:44:35.705Z,100926.22
2018-10-11T15:47:04.919Z,100929.69
2018-10-11T15:49:34.104Z,100939.78
2018-10-11T15:52:03.217Z,100929.41
2018-10-11T15:54:32.559Z,100923.04
2018-10-11T15:57:01.688Z,100931.20
2018-10-11T15:59:30.776Z,100931.33
2018-10-11T16:01:59.972Z,100933.73
2018-10-11T16:04:29.092Z,100941.05
2018-10-11T16:06:58.309Z,100944.11
2018-10-11T16:09:27.488Z,100944.11
2018-10-11T16:11:56.848Z,100938.06
2018-10-11T16:14:26.127Z,100942.59
2018-10-11T16:16:55.167Z,100937.78
2018-10-11T16:19:24.348Z,100943.73
2018-10-11T16:21:53.696Z,100944.80
2018-10-11T16:24:22.969Z,100940.39
2018-10-11T16:26:52.068Z,100946.63
2018-10-11T16:29:21.226Z,100947.98
2018-10-11T16:31:50.351Z,100943.53
2018-10-11T16:34:19.504Z,100939.50
2018-10-11T16:36:48.615Z,100944.31
2018-10-11T16:39:17.835Z,100943.16
2018-10-11T16:41:47.123Z,100948.92
2018-10-11T16:44:16.280Z,100950.47
2018-10-11T16:46:45.420Z,100948.19
2018-10-11T16:49:14.481Z,100953.95
2018-10-11T16:51:43.658Z,100952.68
2018-10-11T16:54:12.742Z,100958.55
2018-10-11T16:56:41.916Z,100962.89
2018-10-11T16:59:10.976Z,100973.86
2018-10-11T17:01:40.130Z,100985.01
2018-10-11T17:04:09.280Z,100994.06
2018-10-11T17:06:38.551Z,100995.78
2018-10-11T17:09:09.267Z,100994.15
2018-10-11T17:11:38.527Z,101003.50
2018-10-11T17:14:07.621Z,101002.16
2018-10-11T17:16:36.859Z,101008.20
2018-10-11T17:19:06.079Z,101016.89
2018-10-11T17:21:35.230Z,101016.97
2018-10-11T17:24:04.440Z,101017.63
2018-10-11T17:26:33.559Z,101017.25
2018-10-11T17:29:02.606Z,101018.59
2018-10-11T17:31:31.697Z,101018.59
2018-10-11T17:34:00.826Z,101026.19
2018-10-11T17:36:30.932Z,101025.33
2018-10-11T17:39:00.159Z,101025.89
2018-10-11T17:41:29.240Z,101027.16
2018-10-11T17:43:58.391Z,101036.59
2018-10-11T17:46:27.651Z,101046.59
2018-10-11T17:48:56.867Z,101049.20
2018-10-11T17:51:25.970Z,101043.90
2018-10-11T17:53:55.059Z,101046.96
2018-10-11T17:56:24.123Z,101048.42
2018-10-11T17:58:53.238Z,101053.32
2018-10-11T18:01:22.320Z,101063.61
2018-10-11T18:03:51.412Z,101056.50
2018-10-11T18:06:20.634Z,101053.60
2018-10-11T18:08:49.701Z,101046.86
2018-10-11T18:11:18.803Z,101038.30
2018-10-11T18:13:48.038Z,101031.19
2018-10-11T18:16:17.260Z,101032.05
2018-10-11T18:18:46.502Z,101042.83
2018-10-11T18:21:15.590Z,101045.52
2018-10-11T18:23:44.722Z,101042.53
2018-10-11T18:26:13.786Z,101041.67
2018-10-11T18:28:42.924Z,101046.09
2018-10-11T18:31:11.991Z,101053.42
2018-10-11T18:33:41.044Z,101049.84
2018-10-11T18:36:10.130Z,101050.32
2018-10-11T18:38:39.198Z,101042.23
2018-10-11T18:41:08.399Z,101050.80
2018-10-11T18:43:37.702Z,101047.25
2018-10-11T18:46:06.770Z,101046.84
2018-10-11T18:48:35.857Z,101043.21
2018-10-11T18:51:05.070Z,101036.07
2018-10-11T18:53:34.242Z,101033.46
2018-10-11T18:56:03.301Z,101036.72
2018-10-11T18:58:32.474Z,101040.27
2018-10-11T19:01:01.618Z,101032.68
2018-10-11T19:03:30.774Z,101039.01
2018-10-11T19:05:59.931Z,101031.41
2018-10-11T19:08:29.617Z,101040.27
2018-10-11T19:10:59.065Z,101049.09
2018-10-11T19:13:28.151Z,101051.86
2018-10-11T19:15:57.360Z,101045.29
2018-10-11T19:18:26.475Z,101037.42
2018-10-11T19:20:55.663Z,101033.22
2018-10-11T19:23:24.951Z,101035.91
2018-10-11T19:25:54.111Z,101027.05
2018-10-11T19:28:23.257Z,101026.27
2018-10-11T19:30:52.457Z,101030.23
2018-10-11T19:33:21.683Z,101027.13
2018-10-11T19:35:51.207Z,101028.97
2018-10-11T19:38:20.420Z,101031.66
2018-10-11T19:40:49.559Z,101027.78
2018-10-11T19:43:18.830Z,101025.46
2018-10-11T19:45:48.065Z,101021.80
2018-10-11T19:48:17.182Z,101034.80
2018-10-11T19:50:46.464Z,101030.84
2018-10-11T19:53:15.513Z,101033.01
2018-10-11T19:55:44.650Z,101034.56
2018-10-11T19:58:13.745Z,101019.75
2018-10-11T20:00:42.826Z,101018.48
2018-10-11T20:03:12.016Z,101015.42
2018-10-11T20:05:41.137Z,101015.02
2018-10-11T20:08:10.317Z,101009.44
2018-10-11T20:10:39.561Z,101015.71
2018-10-11T20:13:08.698Z,101013.96
2018-10-11T20:15:37.808Z,101014.53
2018-10-11T20:18:06.875Z,101011.38
2018-10-11T20:20:36.029Z,101008.77
2018-10-11T20:23:05.106Z,101017.22
2018-10-11T20:25:34.257Z,101020.00
2018-10-11T20:28:03.393Z,101029.75
2018-10-11T20:30:32.472Z,101017.70
2018-10-11T20:33:01.608Z,101009.06
2018-10-11T20:35:30.803Z,101012.12
2018-10-11T20:37:59.896Z,101011.67
2018-10-11T20:40:29.018Z,101011.75
2018-10-11T20:42:58.088Z,101025.22
2018-10-11T20:45:27.165Z,101023.09
2018-10-11T20:47:56.307Z,101015.71
2018-10-11T20:50:25.508Z,101034.56
2018-10-11T20:52:54.578Z,101032.73
2018-10-11T20:55:23.736Z,101031.88
2018-10-11T20:57:52.812Z,101037.71
2018-10-11T21:00:21.916Z,101036.48
2018-10-11T21:02:50.997Z,101030.52
2018-10-11T21:05:20.136Z,101032.16
2018-10-11T21:07:49.225Z,101028.69
2018-10-11T21:10:18.444Z,101029.55
2018-10-11T21:12:47.583Z,101023.11
2018-10-11T21:15:16.633Z,101028.58
2018-10-11T21:17:45.842Z,101022.45
2018-10-11T21:20:20.378Z,101029.18
2018-10-11T21:22:51.201Z,101033.22
2018-10-11T21:25:20.264Z,101032.33
2018-10-11T21:27:49.353Z,101034.56
2018-10-11T21:30:18.475Z,101030.52
2018-10-11T21:32:47.536Z,101024.16
2018-10-11T21:35:16.667Z,101023.80
2018-10-11T21:37:45.723Z,101029.06
2018-10-11T21:40:14.789Z,101032.62
2018-10-11T21:42:44.058Z,101033.22
2018-10-11T21:45:13.137Z,101037.71
2018-10-11T21:47:42.199Z,101036.77
2018-10-11T21:50:11.323Z,101048.48
2018-10-11T21:52:40.451Z,101067.27
2018-10-11T21:55:09.704Z,101078.03
2018-10-11T21:57:38.782Z,101092.48
2018-10-11T22:00:08.400Z,101087.09
2018-10-11T22:02:37.502Z,101094.77
2018-10-11T22:05:06.896Z,101085.83
2018-10-11T22:07:35.990Z,101084.48
2018-10-11T22:10:05.457Z,101085.90
2018-10-11T22:12:34.633Z,101082.34
2018-10-11T22:15:03.862Z,101091.29
2018-10-11T22:17:33.033Z,101079.66
2018-10-11T22:21:05.027Z,101086.31
2018-10-11T22:23:34.155Z,101090.42
2018-10-11T22:26:03.299Z,101086.55
2018-10-11T22:28:32.394Z,101087.59
2018-10-11T22:31:01.473Z,101095.48
2018-10-11T22:33:30.542Z,101100.34
2018-10-11T22:35:59.640Z,101106.88
2018-10-11T22:38:28.753Z,101118.06
2018-10-11T22:40:57.844Z,101140.36
2018-10-11T22:43:27.969Z,101150.69
2018-10-11T22:45:57.090Z,101160.11
2018-10-11T22:48:26.387Z,101167.22
2018-10-11T22:50:55.574Z,101167.14
2018-10-11T22:53:24.678Z,101189.63
2018-10-11T22:55:53.755Z,101189.93
2018-10-11T22:58:22.802Z,101189.29
2018-10-11T23:00:51.994Z,101193.63
2018-10-11T23:03:21.080Z,101188.62
2018-10-11T23:05:51.015Z,101181.95
2018-10-11T23:08:20.208Z,101177.92
2018-10-11T23:10:49.337Z,101166.28
2018-10-11T23:13:18.410Z,101156.36
2018-10-11T23:15:47.512Z,101121.53
2018-10-11T23:18:16.817Z,101118.73
2018-10-11T23:20:45.903Z,101108.64
2018-10-11T23:23:14.980Z,101091.45
2018-10-11T23:25:44.054Z,101092.13
2018-10-11T23:28:13.275Z,101100.47
2018-10-11T23:30:42.460Z,101107.09
2018-10-11T23:33:11.560Z,101095.14
2018-10-11T23:35:40.617Z,101090.72
2018-10-11T23:38:09.650Z,101098.09
2018-10-11T23:40:39.858Z,101095.21
2018-10-11T23:43:09.008Z,101104.23
2018-10-11T23:45:38.158Z,101106.55
2018-10-11T23:48:07.277Z,101107.97
2018-10-11T23:50:36.370Z,101114.32
2018-10-11T23:53:05.434Z,101121.13
2018-10-11T23:55:34.516Z,101122.58
2018-10-11T23:58:04.159Z,101139.22
